sensor_id;sensor_type;location;lat;lon;timestamp;pressure;altitude;pressure_sealevel;temperature;humidity
2178;BME280;1095;50.992;6.798;2023-11-19T00:00:16;100400.25;;;12.53;100.00
2178;BME280;1095;50.992;6.798;2023-11-19T00:02:43;100391.38;;;12.54;100.00
2178;BME280;1095;50.992;6.798;2023-11-19T00:05:12;100391.38;;;12.54;100.00
2178;BME280;1095;50.992;6.798;2023-11-19T00:07:40;100381.66;;;12.62;100.00
2178;BME280;1095;50.992;6.798;2023-11-19T00:10:08;100370.09;;;12.49;100.00
2178;BME280;1095;50.992;6.798;2023-11-19T00:12:36;100367.81;;;12.69;100.00
2178;BME280;1095;50.992;6.798;2023-11-19T00:15:04;100361.13;;;12.66;100.00
2178;BME280;1095;50.992;6.798;2023-11-19T00:17:33;100358.16;;;12.69;100.00
2178;BME280;1095;50.992;6.798;2023-11-19T00:20:00;100354.69;;;12.69;100.00
2178;BME280;1095;50.992;6.798;2023-11-19T00:22:27;100338.25;;;12.75;100.00
2178;BME280;1095;50.992;6.798;2023-11-19T00:24:54;100320.47;;;12.62;100.00
2178;BME280;1095;50.992;6.798;2023-11-19T00:27:21;100347.19;;;12.66;100.00
2178;BME280;1095;50.992;6.798;2023-11-19T00:29:47;100339.97;;;12.82;100.00
2178;BME280;1095;50.992;6.798;2023-11-19T00:32:14;100344.50;;;12.74;100.00
2178;BME280;1095;50.992;6.798;2023-11-19T00:34:43;100347.66;;;12.84;100.00
2178;BME280;1095;50.992;6.798;2023-11-19T00:37:10;100349.75;;;12.88;100.00
2178;BME280;1095;50.992;6.798;2023-11-19T00:39:38;100357.47;;;12.90;100.00
2178;BME280;1095;50.992;6.798;2023-11-19T00:42:07;100363.63;;;12.97;100.00
2178;BME280;1095;50.992;6.798;2023-11-19T00:44:35;100342.53;;;12.90;100.00
2178;BME280;1095;50.992;6.798;2023-11-19T00:47:02;100343.16;;;12.92;100.00
2178;BME280;1095;50.992;6.798;2023-11-19T00:49:30;100344.50;;;12.88;100.00
2178;BME280;1095;50.992;6.798;2023-11-19T00:51:58;100361.53;;;12.92;100.00
2178;BME280;1095;50.992;6.798;2023-11-19T00:54:24;100360.56;;;12.93;100.00
2178;BME280;1095;50.992;6.798;2023-11-19T00:56:53;100354.22;;;13.03;100.00
2178;BME280;1095;50.992;6.798;2023-11-19T00:59:19;100356.41;;;12.99;100.00
2178;BME280;1095;50.992;6.798;2023-11-19T01:01:46;100349.34;;;13.00;100.00
2178;BME280;1095;50.992;6.798;2023-11-19T01:04:13;100344.66;;;13.10;100.00
2178;BME280;1095;50.992;6.798;2023-11-19T01:06:39;100356.75;;;13.19;100.00
2178;BME280;1095;50.992;6.798;2023-11-19T01:09:07;100359.06;;;13.14;100.00
2178;BME280;1095;50.992;6.798;2023-11-19T01:11:34;100355.75;;;13.20;100.00
2178;BME280;1095;50.992;6.798;2023-11-19T01:14:03;100353.16;;;13.12;100.00
2178;BME280;1095;50.992;6.798;2023-11-19T01:16:29;100346.06;;;12.98;100.00
2178;BME280;1095;50.992;6.798;2023-11-19T01:18:56;100349.06;;;12.94;100.00
2178;BME280;1095;50.992;6.798;2023-11-19T01:21:23;100358.56;;;12.95;100.00
2178;BME280;1095;50.992;6.798;2023-11-19T01:23:53;100354.13;;;12.96;100.00
2178;BME280;1095;50.992;6.798;2023-11-19T01:26:19;100352.31;;;12.96;100.00
2178;BME280;1095;50.992;6.798;2023-11-19T01:28:46;100348.88;;;12.96;100.00
2178;BME280;1095;50.992;6.798;2023-11-19T01:31:16;100353.06;;;13.05;100.00
2178;BME280;1095;50.992;6.798;2023-11-19T01:33:42;100344.44;;;12.96;100.00
2178;BME280;1095;50.992;6.798;2023-11-19T01:36:12;100348.63;;;13.06;100.00
2178;BME280;1095;50.992;6.798;2023-11-19T01:38:39;100335.66;;;13.04;100.00
2178;BME280;1095;50.992;6.798;2023-11-19T01:41:06;100357.50;;;13.05;100.00
2178;BME280;1095;50.992;6.798;2023-11-19T01:43:36;100351.84;;;13.16;100.00
2178;BME280;1095;50.992;6.798;2023-11-19T01:46:05;100341.16;;;13.17;100.00
2178;BME280;1095;50.992;6.798;2023-11-19T01:48:38;100338.81;;;13.22;100.00
2178;BME280;1095;50.992;6.798;2023-11-19T01:51:13;100344.28;;;13.13;100.00
2178;BME280;1095;50.992;6.798;2023-11-19T01:53:43;100345.25;;;13.20;100.00
2178;BME280;1095;50.992;6.798;2023-11-19T01:56:14;100344.06;;;13.22;100.00
2178;BME280;1095;50.992;6.798;2023-11-19T01:58:43;100338.53;;;13.32;100.00
2178;BME280;1095;50.992;6.798;2023-11-19T02:01:11;100343.13;;;13.30;100.00
2178;BME280;1095;50.992;6.798;2023-11-19T02:03:40;100346.31;;;13.40;100.00
2178;BME280;1095;50.992;6.798;2023-11-19T02:06:08;100324.75;;;13.30;100.00
2178;BME280;1095;50.992;6.798;2023-11-19T02:08:36;100339.78;;;13.36;100.00
2178;BME280;1095;50.992;6.798;2023-11-19T02:11:04;100329.00;;;13.31;100.00
2178;BME280;1095;50.992;6.798;2023-11-19T02:13:32;100314.22;;;13.30;100.00
2178;BME280;1095;50.992;6.798;2023-11-19T02:16:01;100297.56;;;13.38;100.00
2178;BME280;1095;50.992;6.798;2023-11-19T02:18:28;100305.91;;;13.41;100.00
2178;BME280;1095;50.992;6.798;2023-11-19T02:20:57;100307.81;;;13.47;100.00
2178;BME280;1095;50.992;6.798;2023-11-19T02:23:26;100298.66;;;13.43;100.00
2178;BME280;1095;50.992;6.798;2023-11-19T02:26:12;100305.19;;;13.47;100.00
2178;BME280;1095;50.992;6.798;2023-11-19T02:28:41;100299.00;;;13.40;100.00
2178;BME280;1095;50.992;6.798;2023-11-19T02:31:09;100297.38;;;13.24;100.00
2178;BME280;1095;50.992;6.798;2023-11-19T02:33:36;100294.47;;;13.34;100.00
2178;BME280;1095;50.992;6.798;2023-11-19T02:36:03;100290.22;;;13.33;100.00
2178;BME280;1095;50.992;6.798;2023-11-19T02:38:30;100279.06;;;13.31;100.00
2178;BME280;1095;50.992;6.798;2023-11-19T02:40:57;100286.16;;;13.31;100.00
2178;BME280;1095;50.992;6.798;2023-11-19T02:43:23;100270.63;;;13.06;100.00
2178;BME280;1095;50.992;6.798;2023-11-19T02:45:54;100275.31;;;13.19;100.00
2178;BME280;1095;50.992;6.798;2023-11-19T02:48:21;100275.25;;;13.04;100.00
2178;BME280;1095;50.992;6.798;2023-11-19T02:50:48;100273.81;;;13.02;100.00
2178;BME280;1095;50.992;6.798;2023-11-19T02:53:15;100255.97;;;12.97;100.00
2178;BME280;1095;50.992;6.798;2023-11-19T02:55:42;100256.69;;;13.06;100.00
2178;BME280;1095;50.992;6.798;2023-11-19T02:58:19;100273.09;;;13.08;100.00
2178;BME280;1095;50.992;6.798;2023-11-19T03:00:49;100264.00;;;12.95;100.00
2178;BME280;1095;50.992;6.798;2023-11-19T03:03:23;100264.94;;;13.03;100.00
2178;BME280;1095;50.992;6.798;2023-11-19T03:05:56;100273.09;;;13.08;100.00
2178;BME280;1095;50.992;6.798;2023-11-19T03:08:22;100265.47;;;13.13;100.00
2178;BME280;1095;50.992;6.798;2023-11-19T03:10:49;100272.03;;;13.17;100.00
2178;BME280;1095;50.992;6.798;2023-11-19T03:13:16;100280.91;;;13.16;100.00
2178;BME280;1095;50.992;6.798;2023-11-19T03:15:43;100273.31;;;13.21;100.00
2178;BME280;1095;50.992;6.798;2023-11-19T03:18:10;100261.03;;;13.28;100.00
2178;BME280;1095;50.992;6.798;2023-11-19T03:20:38;100256.44;;;13.30;100.00
2178;BME280;1095;50.992;6.798;2023-11-19T03:23:07;100251.44;;;13.35;100.00
2178;BME280;1095;50.992;6.798;2023-11-19T03:25:33;100270.75;;;13.42;100.00
2178;BME280;1095;50.992;6.798;2023-11-19T03:28:02;100250.34;;;13.44;100.00
2178;BME280;1095;50.992;6.798;2023-11-19T03:30:29;100249.72;;;13.42;100.00
2178;BME280;1095;50.992;6.798;2023-11-19T03:32:56;100248.25;;;13.54;100.00
2178;BME280;1095;50.992;6.798;2023-11-19T03:35:23;100244.53;;;13.49;100.00
2178;BME280;1095;50.992;6.798;2023-11-19T03:38:03;100244.19;;;13.52;100.00
2178;BME280;1095;50.992;6.798;2023-11-19T03:41:09;100224.97;;;13.51;100.00
2178;BME280;1095;50.992;6.798;2023-11-19T03:47:12;100250.25;;;13.52;100.00
2178;BME280;1095;50.992;6.798;2023-11-19T03:49:51;100259.66;;;13.61;100.00
2178;BME280;1095;50.992;6.798;2023-11-19T03:52:21;100260.22;;;13.57;100.00
2178;BME280;1095;50.992;6.798;2023-11-19T03:55:09;100251.13;;;13.59;100.00
2178;BME280;1095;50.992;6.798;2023-11-19T03:57:38;100244.91;;;13.46;100.00
2178;BME280;1095;50.992;6.798;2023-11-19T04:00:33;100253.25;;;13.49;100.00
2178;BME280;1095;50.992;6.798;2023-11-19T04:03:33;100239.56;;;13.39;100.00
2178;BME280;1095;50.992;6.798;2023-11-19T04:06:15;100238.47;;;13.48;100.00
2178;BME280;1095;50.992;6.798;2023-11-19T04:11:42;100269.38;;;13.46;100.00
2178;BME280;1095;50.992;6.798;2023-11-19T04:14:23;100235.13;;;13.25;100.00
2178;BME280;1095;50.992;6.798;2023-11-19T04:20:15;100223.44;;;13.13;100.00
2178;BME280;1095;50.992;6.798;2023-11-19T04:23:03;100224.72;;;13.32;100.00
2178;BME280;1095;50.992;6.798;2023-11-19T04:32:01;100223.91;;;13.02;100.00
2178;BME280;1095;50.992;6.798;2023-11-19T04:34:31;100228.34;;;13.01;100.00
2178;BME280;1095;50.992;6.798;2023-11-19T04:37:10;100239.16;;;13.21;100.00
2178;BME280;1095;50.992;6.798;2023-11-19T04:40:11;100254.16;;;13.27;100.00
2178;BME280;1095;50.992;6.798;2023-11-19T04:48:46;100247.19;;;13.05;100.00
2178;BME280;1095;50.992;6.798;2023-11-19T04:51:19;100258.72;;;13.18;100.00
2178;BME280;1095;50.992;6.798;2023-11-19T04:57:07;100238.66;;;13.03;100.00
2178;BME280;1095;50.992;6.798;2023-11-19T05:00:02;100248.09;;;13.12;100.00
2178;BME280;1095;50.992;6.798;2023-11-19T05:02:45;100234.50;;;12.93;100.00
2178;BME280;1095;50.992;6.798;2023-11-19T05:05:23;100253.97;;;12.99;100.00
2178;BME280;1095;50.992;6.798;2023-11-19T05:07:50;100238.44;;;12.60;100.00
2178;BME280;1095;50.992;6.798;2023-11-19T05:10:19;100231.78;;;12.72;100.00
2178;BME280;1095;50.992;6.798;2023-11-19T05:15:51;100223.97;;;12.79;100.00
2178;BME280;1095;50.992;6.798;2023-11-19T05:18:31;100210.41;;;12.75;100.00
2178;BME280;1095;50.992;6.798;2023-11-19T05:24:50;100238.91;;;12.78;100.00
2178;BME280;1095;50.992;6.798;2023-11-19T05:27:46;100227.69;;;12.70;100.00
2178;BME280;1095;50.992;6.798;2023-11-19T05:31:06;100249.88;;;12.82;100.00
2178;BME280;1095;50.992;6.798;2023-11-19T05:36:55;100245.97;;;12.78;100.00
2178;BME280;1095;50.992;6.798;2023-11-19T05:39:31;100240.47;;;12.73;100.00
2178;BME280;1095;50.992;6.798;2023-11-19T05:44:56;100219.00;;;12.69;100.00
2178;BME280;1095;50.992;6.798;2023-11-19T05:47:26;100243.91;;;12.88;100.00
2178;BME280;1095;50.992;6.798;2023-11-19T05:50:03;100234.13;;;12.82;100.00
2178;BME280;1095;50.992;6.798;2023-11-19T05:52:43;100235.03;;;12.74;100.00
2178;BME280;1095;50.992;6.798;2023-11-19T05:55:38;100258.56;;;12.82;100.00
2178;BME280;1095;50.992;6.798;2023-11-19T05:58:39;100263.09;;;12.74;100.00
2178;BME280;1095;50.992;6.798;2023-11-19T06:01:34;100269.44;;;12.79;100.00
2178;BME280;1095;50.992;6.798;2023-11-19T06:07:14;100258.38;;;12.69;100.00
2178;BME280;1095;50.992;6.798;2023-11-19T06:09:42;100263.75;;;12.76;100.00
2178;BME280;1095;50.992;6.798;2023-11-19T06:12:17;100249.78;;;12.60;100.00
2178;BME280;1095;50.992;6.798;2023-11-19T06:14:47;100270.88;;;12.67;100.00
2178;BME280;1095;50.992;6.798;2023-11-19T06:17:16;100259.66;;;12.73;100.00
2178;BME280;1095;50.992;6.798;2023-11-19T06:19:46;100248.78;;;12.76;100.00
2178;BME280;1095;50.992;6.798;2023-11-19T06:22:14;100251.88;;;12.65;100.00
2178;BME280;1095;50.992;6.798;2023-11-19T06:24:41;100282.00;;;12.69;100.00
2178;BME280;1095;50.992;6.798;2023-11-19T06:27:13;100262.53;;;12.63;100.00
2178;BME280;1095;50.992;6.798;2023-11-19T06:29:53;100286.63;;;12.67;100.00
2178;BME280;1095;50.992;6.798;2023-11-19T06:32:55;100265.88;;;12.57;100.00
2178;BME280;1095;50.992;6.798;2023-11-19T06:35:34;100278.28;;;12.63;100.00
2178;BME280;1095;50.992;6.798;2023-11-19T06:38:05;100295.03;;;12.62;100.00
2178;BME280;1095;50.992;6.798;2023-11-19T06:40:35;100283.25;;;12.58;100.00
2178;BME280;1095;50.992;6.798;2023-11-19T06:43:11;100273.91;;;12.56;100.00
2178;BME280;1095;50.992;6.798;2023-11-19T06:45:37;100270.19;;;12.50;100.00
2178;BME280;1095;50.992;6.798;2023-11-19T06:48:05;100264.47;;;12.47;100.00
2178;BME280;1095;50.992;6.798;2023-11-19T06:50:32;100297.38;;;12.57;100.00
2178;BME280;1095;50.992;6.798;2023-11-19T06:53:02;100301.16;;;12.55;100.00
2178;BME280;1095;50.992;6.798;2023-11-19T06:55:45;100282.59;;;12.56;100.00
2178;BME280;1095;50.992;6.798;2023-11-19T06:58:12;100272.63;;;12.52;100.00
2178;BME280;1095;50.992;6.798;2023-11-19T07:00:40;100271.19;;;12.49;100.00
2178;BME280;1095;50.992;6.798;2023-11-19T07:03:36;100289.19;;;12.52;100.00
2178;BME280;1095;50.992;6.798;2023-11-19T07:06:26;100297.50;;;12.41;100.00
2178;BME280;1095;50.992;6.798;2023-11-19T07:09:02;100270.59;;;12.24;100.00
2178;BME280;1095;50.992;6.798;2023-11-19T07:11:46;100306.94;;;12.50;100.00
2178;BME280;1095;50.992;6.798;2023-11-19T07:14:24;100295.84;;;12.40;100.00
2178;BME280;1095;50.992;6.798;2023-11-19T07:17:33;100292.19;;;12.49;100.00
2178;BME280;1095;50.992;6.798;2023-11-19T07:20:50;100293.06;;;12.42;100.00
2178;BME280;1095;50.992;6.798;2023-11-19T07:26:15;100279.34;;;12.32;100.00
2178;BME280;1095;50.992;6.798;2023-11-19T07:33:22;100296.50;;;12.65;99.67
2178;BME280;1095;50.992;6.798;2023-11-19T07:35:52;100291.31;;;12.57;98.80
2178;BME280;1095;50.992;6.798;2023-11-19T07:38:35;100291.59;;;12.62;98.39
2178;BME280;1095;50.992;6.798;2023-11-19T07:41:06;100320.88;;;12.74;97.97
2178;BME280;1095;50.992;6.798;2023-11-19T07:43:38;100314.16;;;12.71;97.77
2178;BME280;1095;50.992;6.798;2023-11-19T07:46:19;100304.28;;;12.73;97.33
2178;BME280;1095;50.992;6.798;2023-11-19T07:48:49;100295.56;;;12.58;96.98
2178;BME280;1095;50.992;6.798;2023-11-19T07:51:19;100294.56;;;12.59;97.16
2178;BME280;1095;50.992;6.798;2023-11-19T07:53:47;100325.56;;;12.78;96.59
2178;BME280;1095;50.992;6.798;2023-11-19T07:56:23;100290.66;;;12.55;96.22
2178;BME280;1095;50.992;6.798;2023-11-19T07:59:14;100330.91;;;12.85;96.07
2178;BME280;1095;50.992;6.798;2023-11-19T08:01:49;100294.88;;;12.79;95.73
2178;BME280;1095;50.992;6.798;2023-11-19T08:04:15;100293.16;;;12.86;95.41
2178;BME280;1095;50.992;6.798;2023-11-19T08:06:45;100287.78;;;12.65;95.73
2178;BME280;1095;50.992;6.798;2023-11-19T08:09:14;100317.25;;;12.89;96.42
2178;BME280;1095;50.992;6.798;2023-11-19T08:11:42;100316.78;;;12.71;97.11
2178;BME280;1095;50.992;6.798;2023-11-19T08:14:11;100330.63;;;12.80;97.18
2178;BME280;1095;50.992;6.798;2023-11-19T08:16:39;100329.56;;;12.89;97.01
2178;BME280;1095;50.992;6.798;2023-11-19T08:19:13;100341.94;;;12.80;97.39
2178;BME280;1095;50.992;6.798;2023-11-19T08:21:43;100356.06;;;12.79;97.95
2178;BME280;1095;50.992;6.798;2023-11-19T08:24:14;100358.00;;;12.85;97.89
2178;BME280;1095;50.992;6.798;2023-11-19T08:26:41;100368.50;;;12.85;97.79
2178;BME280;1095;50.992;6.798;2023-11-19T08:29:11;100354.25;;;12.80;97.87
2178;BME280;1095;50.992;6.798;2023-11-19T08:31:41;100358.22;;;12.99;97.60
2178;BME280;1095;50.992;6.798;2023-11-19T08:34:15;100362.50;;;13.14;96.93
2178;BME280;1095;50.992;6.798;2023-11-19T08:36:43;100345.19;;;13.05;96.38
2178;BME280;1095;50.992;6.798;2023-11-19T08:39:18;100367.91;;;12.98;96.02
2178;BME280;1095;50.992;6.798;2023-11-19T08:41:46;100351.91;;;12.85;95.94
2178;BME280;1095;50.992;6.798;2023-11-19T08:44:13;100371.00;;;13.02;95.72
2178;BME280;1095;50.992;6.798;2023-11-19T08:46:46;100375.00;;;13.12;95.46
2178;BME280;1095;50.992;6.798;2023-11-19T08:49:14;100377.44;;;13.14;95.21
2178;BME280;1095;50.992;6.798;2023-11-19T08:51:41;100378.22;;;13.22;94.72
2178;BME280;1095;50.992;6.798;2023-11-19T08:54:08;100366.25;;;13.20;94.80
2178;BME280;1095;50.992;6.798;2023-11-19T08:56:35;100377.31;;;13.30;94.85
2178;BME280;1095;50.992;6.798;2023-11-19T08:59:01;100377.31;;;13.30;94.69
2178;BME280;1095;50.992;6.798;2023-11-19T09:01:29;100380.09;;;13.28;93.57
2178;BME280;1095;50.992;6.798;2023-11-19T09:03:58;100373.84;;;13.29;93.52
2178;BME280;1095;50.992;6.798;2023-11-19T09:06:26;100383.00;;;13.34;93.66
2178;BME280;1095;50.992;6.798;2023-11-19T09:08:55;100376.03;;;13.41;92.99
2178;BME280;1095;50.992;6.798;2023-11-19T09:11:37;100376.88;;;13.41;93.09
2178;BME280;1095;50.992;6.798;2023-11-19T09:14:07;100378.47;;;13.27;93.19
2178;BME280;1095;50.992;6.798;2023-11-19T09:16:36;100380.22;;;13.35;92.97
2178;BME280;1095;50.992;6.798;2023-11-19T09:19:07;100370.63;;;13.42;92.36
2178;BME280;1095;50.992;6.798;2023-11-19T09:21:37;100370.97;;;13.54;91.99
2178;BME280;1095;50.992;6.798;2023-11-19T09:24:09;100375.31;;;13.47;92.05
2178;BME280;1095;50.992;6.798;2023-11-19T09:26:36;100372.44;;;13.56;91.81
2178;BME280;1095;50.992;6.798;2023-11-19T09:29:07;100371.06;;;13.60;90.92
2178;BME280;1095;50.992;6.798;2023-11-19T09:31:41;100365.78;;;13.75;91.12
2178;BME280;1095;50.992;6.798;2023-11-19T09:48:25;100352.53;;;14.19;88.05
2178;BME280;1095;50.992;6.798;2023-11-19T09:58:06;100359.56;;;14.12;87.95
2178;BME280;1095;50.992;6.798;2023-11-19T10:00:34;100368.47;;;14.11;87.86
2178;BME280;1095;50.992;6.798;2023-11-19T10:03:02;100357.69;;;14.06;87.29
2178;BME280;1095;50.992;6.798;2023-11-19T10:05:30;100352.63;;;14.26;87.33
2178;BME280;1095;50.992;6.798;2023-11-19T10:07:58;100353.44;;;14.26;87.70
2178;BME280;1095;50.992;6.798;2023-11-19T10:10:25;100362.06;;;14.20;88.21
2178;BME280;1095;50.992;6.798;2023-11-19T10:12:52;100357.00;;;14.19;88.33
2178;BME280;1095;50.992;6.798;2023-11-19T10:15:21;100362.22;;;14.12;88.37
2178;BME280;1095;50.992;6.798;2023-11-19T10:17:51;100347.69;;;14.16;88.16
2178;BME280;1095;50.992;6.798;2023-11-19T10:20:17;100358.22;;;14.16;88.05
2178;BME280;1095;50.992;6.798;2023-11-19T10:22:44;100352.88;;;14.31;88.30
2178;BME280;1095;50.992;6.798;2023-11-19T10:25:21;100351.88;;;14.32;87.74
2178;BME280;1095;50.992;6.798;2023-11-19T10:27:49;100345.66;;;14.54;87.95
2178;BME280;1095;50.992;6.798;2023-11-19T10:30:20;100346.09;;;14.58;87.47
2178;BME280;1095;50.992;6.798;2023-11-19T10:33:02;100354.25;;;14.63;86.65
2178;BME280;1095;50.992;6.798;2023-11-19T10:35:30;100335.69;;;14.50;86.98
2178;BME280;1095;50.992;6.798;2023-11-19T10:37:59;100346.72;;;14.60;87.15
2178;BME280;1095;50.992;6.798;2023-11-19T10:40:37;100337.75;;;14.54;86.27
2178;BME280;1095;50.992;6.798;2023-11-19T10:43:05;100320.16;;;14.40;85.08
2178;BME280;1095;50.992;6.798;2023-11-19T10:45:33;100329.00;;;14.33;86.09
2178;BME280;1095;50.992;6.798;2023-11-19T10:48:02;100331.16;;;14.44;85.32
2178;BME280;1095;50.992;6.798;2023-11-19T10:50:29;100327.56;;;14.30;85.09
2178;BME280;1095;50.992;6.798;2023-11-19T10:52:57;100329.31;;;14.23;85.02
2178;BME280;1095;50.992;6.798;2023-11-19T10:55:27;100336.44;;;14.44;85.36
2178;BME280;1095;50.992;6.798;2023-11-19T10:57:58;100334.63;;;14.44;85.28
2178;BME280;1095;50.992;6.798;2023-11-19T11:00:26;100327.41;;;14.53;84.89
2178;BME280;1095;50.992;6.798;2023-11-19T11:02:58;100318.88;;;14.51;84.67
2178;BME280;1095;50.992;6.798;2023-11-19T11:05:29;100335.31;;;14.53;85.16
2178;BME280;1095;50.992;6.798;2023-11-19T11:07:55;100334.63;;;14.29;85.55
2178;BME280;1095;50.992;6.798;2023-11-19T11:10:25;100350.16;;;14.03;86.58
2178;BME280;1095;50.992;6.798;2023-11-19T11:12:54;100373.41;;;13.85;88.66
2178;BME280;1095;50.992;6.798;2023-11-19T11:15:26;100357.41;;;14.01;88.52
2178;BME280;1095;50.992;6.798;2023-11-19T11:17:56;100346.28;;;14.20;88.08
2178;BME280;1095;50.992;6.798;2023-11-19T11:20:25;100340.72;;;14.30;87.96
2178;BME280;1095;50.992;6.798;2023-11-19T11:23:02;100324.63;;;14.40;87.54
2178;BME280;1095;50.992;6.798;2023-11-19T11:25:38;100320.66;;;14.29;86.52
2178;BME280;1095;50.992;6.798;2023-11-19T11:28:18;100326.66;;;14.23;86.62
2178;BME280;1095;50.992;6.798;2023-11-19T11:31:00;100322.59;;;14.20;86.82
2178;BME280;1095;50.992;6.798;2023-11-19T11:33:52;100299.16;;;14.25;85.47
2178;BME280;1095;50.992;6.798;2023-11-19T11:36:24;100309.56;;;14.34;85.03
2178;BME280;1095;50.992;6.798;2023-11-19T11:38:53;100287.50;;;14.35;84.28
2178;BME280;1095;50.992;6.798;2023-11-19T11:41:25;100272.44;;;14.43;83.31
2178;BME280;1095;50.992;6.798;2023-11-19T11:43:53;100266.81;;;14.46;82.09
2178;BME280;1095;50.992;6.798;2023-11-19T11:46:54;100269.56;;;14.66;81.73
2178;BME280;1095;50.992;6.798;2023-11-19T11:49:28;100267.38;;;14.70;82.22
2178;BME280;1095;50.992;6.798;2023-11-19T11:52:03;100260.72;;;14.74;81.76
2178;BME280;1095;50.992;6.798;2023-11-19T11:54:31;100270.06;;;14.76;82.18
2178;BME280;1095;50.992;6.798;2023-11-19T11:57:02;100279.34;;;14.72;82.20
2178;BME280;1095;50.992;6.798;2023-11-19T11:59:40;100279.72;;;14.69;83.19
2178;BME280;1095;50.992;6.798;2023-11-19T12:02:10;100300.16;;;14.67;83.26
2178;BME280;1095;50.992;6.798;2023-11-19T12:04:37;100285.66;;;14.78;83.21
2178;BME280;1095;50.992;6.798;2023-11-19T12:07:08;100286.72;;;14.83;82.87
2178;BME280;1095;50.992;6.798;2023-11-19T12:09:39;100280.31;;;14.92;83.16
2178;BME280;1095;50.992;6.798;2023-11-19T12:12:18;100291.31;;;15.03;83.42
2178;BME280;1095;50.992;6.798;2023-11-19T12:15:05;100279.16;;;15.02;84.04
2178;BME280;1095;50.992;6.798;2023-11-19T12:17:49;100278.81;;;14.83;83.77
2178;BME280;1095;50.992;6.798;2023-11-19T12:20:16;100277.69;;;14.92;83.87
2178;BME280;1095;50.992;6.798;2023-11-19T12:22:44;100266.84;;;14.81;83.93
2178;BME280;1095;50.992;6.798;2023-11-19T12:25:13;100280.97;;;14.73;84.63
2178;BME280;1095;50.992;6.798;2023-11-19T12:27:42;100278.28;;;14.67;84.47
2178;BME280;1095;50.992;6.798;2023-11-19T12:30:10;100283.78;;;14.72;84.65
2178;BME280;1095;50.992;6.798;2023-11-19T12:32:41;100281.09;;;14.58;84.54
2178;BME280;1095;50.992;6.798;2023-11-19T12:35:08;100279.84;;;14.54;84.93
2178;BME280;1095;50.992;6.798;2023-11-19T12:37:40;100277.56;;;14.51;84.52
2178;BME280;1095;50.992;6.798;2023-11-19T12:40:16;100271.59;;;14.64;84.50
2178;BME280;1095;50.992;6.798;2023-11-19T12:42:44;100261.78;;;14.51;84.28
2178;BME280;1095;50.992;6.798;2023-11-19T12:45:10;100273.25;;;14.44;84.51
2178;BME280;1095;50.992;6.798;2023-11-19T12:47:38;100257.38;;;14.37;85.16
2178;BME280;1095;50.992;6.798;2023-11-19T12:50:06;100278.72;;;14.42;85.33
2178;BME280;1095;50.992;6.798;2023-11-19T12:52:34;100269.34;;;14.40;86.09
2178;BME280;1095;50.992;6.798;2023-11-19T12:55:01;100266.50;;;14.20;86.61
2178;BME280;1095;50.992;6.798;2023-11-19T12:57:39;100278.44;;;14.37;87.15
2178;BME280;1095;50.992;6.798;2023-11-19T13:00:07;100274.47;;;14.26;87.41
2178;BME280;1095;50.992;6.798;2023-11-19T13:02:45;100280.56;;;14.27;88.27
2178;BME280;1095;50.992;6.798;2023-11-19T13:05:26;100282.50;;;14.18;89.29
2178;BME280;1095;50.992;6.798;2023-11-19T13:08:03;100293.34;;;14.09;89.41
2178;BME280;1095;50.992;6.798;2023-11-19T13:10:30;100288.38;;;13.99;89.00
2178;BME280;1095;50.992;6.798;2023-11-19T13:13:07;100293.84;;;14.19;88.83
2178;BME280;1095;50.992;6.798;2023-11-19T13:15:35;100282.38;;;14.05;88.37
2178;BME280;1095;50.992;6.798;2023-11-19T13:18:02;100281.00;;;14.09;88.25
2178;BME280;1095;50.992;6.798;2023-11-19T13:20:29;100285.94;;;13.98;88.74
2178;BME280;1095;50.992;6.798;2023-11-19T13:22:57;100279.50;;;14.00;88.75
2178;BME280;1095;50.992;6.798;2023-11-19T13:25:25;100282.69;;;13.95;89.13
2178;BME280;1095;50.992;6.798;2023-11-19T13:27:52;100278.50;;;14.01;88.90
2178;BME280;1095;50.992;6.798;2023-11-19T13:30:20;100274.31;;;14.07;88.12
2178;BME280;1095;50.992;6.798;2023-11-19T13:32:48;100274.75;;;14.10;88.17
2178;BME280;1095;50.992;6.798;2023-11-19T13:35:15;100259.69;;;14.25;87.62
2178;BME280;1095;50.992;6.798;2023-11-19T13:37:42;100255.44;;;14.24;87.12
2178;BME280;1095;50.992;6.798;2023-11-19T13:40:10;100246.78;;;14.31;86.41
2178;BME280;1095;50.992;6.798;2023-11-19T13:42:39;100242.53;;;14.29;85.89
2178;BME280;1095;50.992;6.798;2023-11-19T13:45:07;100243.28;;;14.23;85.77
2178;BME280;1095;50.992;6.798;2023-11-19T13:47:39;100243.00;;;14.12;85.52
2178;BME280;1095;50.992;6.798;2023-11-19T13:50:08;100240.72;;;14.09;85.72
2178;BME280;1095;50.992;6.798;2023-11-19T13:52:35;100237.41;;;14.00;85.84
2178;BME280;1095;50.992;6.798;2023-11-19T13:55:05;100238.38;;;14.20;85.38
2178;BME280;1095;50.992;6.798;2023-11-19T13:57:31;100231.00;;;14.31;85.18
2178;BME280;1095;50.992;6.798;2023-11-19T13:59:59;100236.72;;;14.13;85.12
2178;BME280;1095;50.992;6.798;2023-11-19T14:02:26;100235.91;;;14.12;84.73
2178;BME280;1095;50.992;6.798;2023-11-19T14:04:54;100232.38;;;14.26;84.76
2178;BME280;1095;50.992;6.798;2023-11-19T14:07:21;100220.13;;;14.12;84.76
2178;BME280;1095;50.992;6.798;2023-11-19T14:09:49;100212.47;;;14.17;84.12
2178;BME280;1095;50.992;6.798;2023-11-19T14:12:15;100216.25;;;14.08;84.61
2178;BME280;1095;50.992;6.798;2023-11-19T14:14:42;100214.81;;;14.06;84.91
2178;BME280;1095;50.992;6.798;2023-11-19T14:17:09;100205.97;;;14.13;84.92
2178;BME280;1095;50.992;6.798;2023-11-19T14:19:36;100213.09;;;13.98;85.25
2178;BME280;1095;50.992;6.798;2023-11-19T14:22:06;100213.53;;;14.02;84.85
2178;BME280;1095;50.992;6.798;2023-11-19T14:24:33;100215.09;;;13.96;84.73
2178;BME280;1095;50.992;6.798;2023-11-19T14:27:00;100212.16;;;13.84;85.00
2178;BME280;1095;50.992;6.798;2023-11-19T14:29:27;100218.09;;;13.93;84.89
2178;BME280;1095;50.992;6.798;2023-11-19T14:31:56;100208.84;;;13.97;84.02
2178;BME280;1095;50.992;6.798;2023-11-19T14:34:24;100220.00;;;13.99;84.02
2178;BME280;1095;50.992;6.798;2023-11-19T14:36:51;100222.22;;;13.81;84.45
2178;BME280;1095;50.992;6.798;2023-11-19T14:39:20;100227.75;;;13.86;84.82